Time;durP1;ratioP1;P1;durP2;ratioP2;P2;SDS_P1;SDS_P2;PMS_P1;PMS_P2;Temp;Humidity;BMP_temperature;BMP_pressure;BME280_temperature;BME280_humidity;BME280_pressure;Samples;Min_cycle;Max_cycle;Signal;HPM_P1;HPM_P2
2021/11/02 00:00:53;;;;;;;95.95;9.27;;;;;;;;;;5048142;28;20026;-63
2021/11/02 00:03:19;;;;;;;110.22;8.93;;;;;;;;;;5050604;28;20032;-63
2021/11/02 00:05:45;;;;;;;60.17;8.40;;;;;;;;;;5049210;28;20432;-63
2021/11/02 00:08:11;;;;;;;151.45;10.75;;;;;;;;;;5048225;28;20396;-63
2021/11/02 00:10:37;;;;;;;102.28;8.45;;;;;;;;;;5048152;28;20112;-63
2021/11/02 00:13:04;;;;;;;28.27;6.65;;;;;;;;;;5048336;28;20532;-63
2021/11/02 00:15:32;;;;;;;54.60;7.25;;;;;;;;;;5049466;28;20365;-63
2021/11/02 00:18:02;;;;;;;;;;;;;;;;;;5033393;28;20078;-61
2021/11/02 00:20:28;;;;;;;60.22;7.70;;;;;;;;;;5047965;28;20261;-62
2021/11/02 00:22:55;;;;;;;71.95;8.27;;;;;;;;;;5047468;28;20032;-63
2021/11/02 00:25:23;;;;;;;43.38;8.85;;;;;;;;;;5048029;28;20527;-63
2021/11/02 00:27:49;;;;;;;27.70;7.90;;;;;;;;;;5047130;28;20042;-63
2021/11/02 00:30:16;;;;;;;37.30;8.18;;;;;;;;;;5050529;28;20029;-63
2021/11/02 00:32:43;;;;;;;49.75;8.88;;;;;;;;;;5050244;28;20044;-64
2021/11/02 00:35:12;;;;;;;18.35;8.32;;;;;;;;;;5048127;28;20614;-63
2021/11/02 00:37:39;;;;;;;20.33;8.52;;;;;;;;;;5047429;28;20562;-63
2021/11/02 00:40:06;;;;;;;65.20;10.20;;;;;;;;;;5047800;28;20025;-63
2021/11/02 00:42:38;;;;;;;49.63;9.50;;;;;;;;;;5048585;28;20051;-63
2021/11/02 00:45:08;;;;;;;103.78;12.73;;;;;;;;;;5051107;28;20020;-63
2021/11/02 00:47:34;;;;;;;95.75;12.38;;;;;;;;;;5048768;28;20131;-63
2021/11/02 00:50:01;;;;;;;102.93;11.32;;;;;;;;;;5047477;28;20430;-62
2021/11/02 00:52:29;;;;;;;54.45;10.18;;;;;;;;;;5047691;28;20502;-63
2021/11/02 00:54:56;;;;;;;60.13;10.80;;;;;;;;;;5047630;28;20052;-63
2021/11/02 00:57:23;;;;;;;34.45;8.43;;;;;;;;;;5049711;28;20082;-62
2021/11/02 00:59:49;;;;;;;40.08;6.97;;;;;;;;;;5047816;28;20052;-63
2021/11/02 01:02:18;;;;;;;162.77;10.52;;;;;;;;;;5045529;28;20031;-63
2021/11/02 01:04:44;;;;;;;113.53;6.90;;;;;;;;;;5047954;28;20025;-62
2021/11/02 01:07:10;;;;;;;63.42;6.20;;;;;;;;;;5047485;28;20052;-62
2021/11/02 01:09:36;;;;;;;94.70;6.18;;;;;;;;;;5048499;28;20030;-63
2021/11/02 01:12:02;;;;;;;131.38;7.05;;;;;;;;;;5050327;28;20051;-63
2021/11/02 01:14:28;;;;;;;67.43;6.30;;;;;;;;;;5046834;28;20036;-63
2021/11/02 01:16:54;;;;;;;121.75;7.82;;;;;;;;;;5047058;28;20029;-63
2021/11/02 01:19:20;;;;;;;48.25;5.72;;;;;;;;;;5047708;28;20053;-63
2021/11/02 01:21:46;;;;;;;39.45;6.22;;;;;;;;;;5047637;28;20478;-63
2021/11/02 01:24:12;;;;;;;43.97;6.10;;;;;;;;;;5049082;28;20025;-63
2021/11/02 01:26:38;;;;;;;111.53;7.15;;;;;;;;;;5047685;28;20276;-63
2021/11/02 01:29:04;;;;;;;51.03;6.05;;;;;;;;;;5047064;28;20045;-63
2021/11/02 01:31:30;;;;;;;34.25;5.32;;;;;;;;;;5047357;28;20056;-62
2021/11/02 01:33:56;;;;;;;37.47;5.03;;;;;;;;;;5047645;28;20497;-62
2021/11/02 01:36:22;;;;;;;36.17;5.40;;;;;;;;;;5052679;28;20078;-63
2021/11/02 01:38:48;;;;;;;45.45;6.03;;;;;;;;;;5052449;28;20057;-62
2021/11/02 01:41:19;;;;;;;49.70;5.45;;;;;;;;;;5051121;28;20111;-62
2021/11/02 01:43:45;;;;;;;123.85;7.40;;;;;;;;;;5050789;28;20144;-63
2021/11/02 01:46:25;;;;;;;54.78;6.45;;;;;;;;;;5050894;28;20554;-62
2021/11/02 01:48:53;;;;;;;73.55;6.78;;;;;;;;;;5036929;28;20064;-62
2021/11/02 01:51:20;;;;;;;51.77;6.07;;;;;;;;;;5053506;28;20558;-63
2021/11/02 01:53:46;;;;;;;79.15;6.50;;;;;;;;;;5051779;28;20056;-62
2021/11/02 01:56:12;;;;;;;68.43;5.32;;;;;;;;;;5050489;28;20444;-63
2021/11/02 01:58:39;;;;;;;12.75;4.03;;;;;;;;;;5050646;28;20100;-63
2021/11/02 02:01:05;;;;;;;15.75;4.40;;;;;;;;;;5051191;28;20033;-63
2021/11/02 02:03:48;;;;;;;92.75;5.63;;;;;;;;;;5052156;28;20099;-62
2021/11/02 02:06:14;;;;;;;20.02;4.07;;;;;;;;;;5050035;28;20020;-63
2021/11/02 02:08:40;;;;;;;33.15;4.05;;;;;;;;;;5051170;28;20438;-63
2021/11/02 02:11:06;;;;;;;40.72;5.00;;;;;;;;;;5050489;28;20029;-63
2021/11/02 02:13:47;;;;;;;97.65;5.63;;;;;;;;;;5050155;28;20037;-63
2021/11/02 02:16:16;;;;;;;92.57;7.32;;;;;;;;;;5050477;28;20741;-63
2021/11/02 02:18:46;;;;;;;32.40;5.63;;;;;;;;;;5050759;28;20053;-63
2021/11/02 02:21:31;;;;;;;77.63;6.13;;;;;;;;;;5053661;28;20028;-65
2021/11/02 02:24:16;;;;;;;131.25;8.65;;;;;;;;;;5052490;28;20534;-65
2021/11/02 02:26:57;;;;;;;66.20;7.72;;;;;;;;;;5052683;28;20036;-66
2021/11/02 02:29:24;;;;;;;38.00;6.28;;;;;;;;;;5050427;28;20029;-65
2021/11/02 02:31:51;;;;;;;11.35;5.10;;;;;;;;;;5050357;28;20039;-66
2021/11/02 02:34:18;;;;;;;14.73;6.05;;;;;;;;;;5049528;28;20057;-65
2021/11/02 02:36:45;;;;;;;12.27;5.07;;;;;;;;;;5049764;28;20035;-65
2021/11/02 02:39:13;;;;;;;8.75;4.38;;;;;;;;;;5053026;28;20051;-65
2021/11/02 02:41:40;;;;;;;13.73;4.80;;;;;;;;;;5066551;28;20561;-65
2021/11/02 02:44:08;;;;;;;11.00;4.63;;;;;;;;;;5049586;28;20112;-65
2021/11/02 02:46:35;;;;;;;115.53;6.68;;;;;;;;;;5048669;28;20043;-65
2021/11/02 02:49:01;;;;;;;58.60;5.78;;;;;;;;;;5049764;28;20037;-65
2021/11/02 02:51:28;;;;;;;35.47;7.28;;;;;;;;;;5050474;28;20079;-66
2021/11/02 02:53:54;;;;;;;59.05;7.47;;;;;;;;;;5050971;28;20111;-66
2021/11/02 02:56:21;;;;;;;12.48;5.78;;;;;;;;;;5049484;28;20036;-66
2021/11/02 02:58:48;;;;;;;10.98;5.65;;;;;;;;;;5049470;28;20063;-65
2021/11/02 03:01:16;;;;;;;13.82;6.15;;;;;;;;;;5049806;28;20618;-65
2021/11/02 03:03:54;;;;;;;5.53;2.22;;;;;;;;;;5049820;28;20036;-65
2021/11/02 03:06:21;;;;;;;;;;;;;;;;;;5052028;28;20032;-65
2021/11/02 03:08:48;;;;;;;6.10;2.30;;;;;;;;;;5050706;28;20403;-66
2021/11/02 03:11:15;;;;;;;4.32;1.90;;;;;;;;;;5049099;28;20033;-65
2021/11/02 03:13:46;;;;;;;475.63;16.80;;;;;;;;;;5049092;28;20036;-65
2021/11/02 03:16:14;;;;;;;117.72;4.85;;;;;;;;;;5049054;28;20033;-65
2021/11/02 03:43:41;;;;;;;4.32;2.45;;;;;;;;;;5048349;28;20047;-65
2021/11/02 03:49:01;;;;;;;7.10;3.10;;;;;;;;;;5034967;28;20043;-65
2021/11/02 03:57:27;;;;;;;7.72;3.88;;;;;;;;;;5051078;28;20040;-65
2021/11/02 04:27:54;;;;;;;29.60;3.03;;;;;;;;;;5049694;28;20048;-65
2021/11/02 05:11:21;;;;;;;6.85;2.75;;;;;;;;;;5051022;28;20027;-65
2021/11/02 05:20:24;;;;;;;2.25;1.30;;;;;;;;;;5048157;28;20045;-65
2021/11/02 05:53:12;;;;;;;2.25;0.82;;;;;;;;;;5050466;28;19909;-65
2021/11/02 06:00:22;;;;;;;2.42;1.55;;;;;;;;;;5049935;28;20384;-65
2021/11/02 06:05:42;;;;;;;2.60;1.15;;;;;;;;;;5050663;28;20060;-65
2021/11/02 06:30:14;;;;;;;1.63;1.20;;;;;;;;;;5049379;28;20017;-66
2021/11/02 06:32:46;;;;;;;4.30;0.93;;;;;;;;;;5051224;28;20463;-66
2021/11/02 06:35:41;;;;;;;4.57;2.20;;;;;;;;;;5050345;28;20059;-65
2021/11/02 06:44:01;;;;;;;7.30;2.90;;;;;;;;;;5050354;28;20040;-67
2021/11/02 06:49:48;;;;;;;5.57;3.47;;;;;;;;;;5050065;28;20535;-66
2021/11/02 06:58:02;;;;;;;6.63;3.22;;;;;;;;;;5046574;28;20033;-66
2021/11/02 07:15:28;;;;;;;7.47;3.58;;;;;;;;;;5047153;28;20039;-66
2021/11/02 07:17:15;;;;;;;12.98;5.40;;;;;;;;;;5046295;28;20063;-67
2021/11/02 07:19:51;;;;;;;9.50;5.03;;;;;;;;;;5051650;28;20445;-66
2021/11/02 07:22:30;;;;;;;12.20;5.10;;;;;;;;;;5047299;28;20037;-66
2021/11/02 07:28:07;;;;;;;9.82;5.40;;;;;;;;;;5049223;28;20509;-65
2021/11/02 08:46:59;;;;;;;7.55;4.43;;;;;;;;;;5046786;28;20435;-66
2021/11/02 08:49:04;;;;;;;7.38;4.00;;;;;;;;;;5032315;28;20388;-68
2021/11/02 08:51:31;;;;;;;7.03;3.30;;;;;;;;;;5047948;28;20029;-66
2021/11/02 08:53:57;;;;;;;9.43;3.83;;;;;;;;;;5048785;28;20040;-66
2021/11/02 08:56:23;;;;;;;5.55;3.40;;;;;;;;;;5046428;28;20029;-66
2021/11/02 08:58:51;;;;;;;3.97;2.60;;;;;;;;;;5045405;28;20392;-66
2021/11/02 09:01:18;;;;;;;4.10;2.65;;;;;;;;;;5046458;28;20021;-66
2021/11/02 09:03:45;;;;;;;4.85;2.50;;;;;;;;;;5046432;28;20025;-65
2021/11/02 09:06:15;;;;;;;5.73;2.80;;;;;;;;;;5048586;28;20048;-65
2021/11/02 09:08:45;;;;;;;6.20;2.75;;;;;;;;;;5046463;28;20110;-66
2021/11/02 09:11:14;;;;;;;5.32;2.70;;;;;;;;;;5046094;28;20025;-65
2021/11/02 09:13:42;;;;;;;5.25;2.60;;;;;;;;;;5047541;28;20104;-65
2021/11/02 09:16:09;;;;;;;5.15;2.60;;;;;;;;;;5044748;28;20025;-66
2021/11/02 09:18:35;;;;;;;4.72;2.60;;;;;;;;;;5044511;28;20069;-66
2021/11/02 09:21:01;;;;;;;4.43;2.00;;;;;;;;;;5047632;28;20357;-66
2021/11/02 09:23:27;;;;;;;5.60;3.30;;;;;;;;;;5046425;28;20024;-66
2021/11/02 09:25:54;;;;;;;3.83;2.33;;;;;;;;;;5045483;28;20075;-66
2021/11/02 09:28:20;;;;;;;3.30;1.90;;;;;;;;;;5043540;28;20551;-66
2021/11/02 09:30:46;;;;;;;3.38;1.38;;;;;;;;;;5044762;28;20037;-66
2021/11/02 09:33:12;;;;;;;9.82;2.40;;;;;;;;;;5049205;28;20052;-66
2021/11/02 09:35:39;;;;;;;3.00;1.52;;;;;;;;;;5046488;28;20033;-66
2021/11/02 09:38:14;;;;;;;3.10;2.00;;;;;;;;;;5046320;28;20568;-67
2021/11/02 09:41:00;;;;;;;4.38;2.38;;;;;;;;;;5052461;28;20543;-65
2021/11/02 09:43:34;;;;;;;5.35;2.63;;;;;;;;;;5051610;28;20427;-67
2021/11/02 09:46:19;;;;;;;3.85;2.35;;;;;;;;;;5046145;28;20051;-67
2021/11/02 09:48:53;;;;;;;4.47;2.15;;;;;;;;;;5046701;28;20059;-65
2021/11/02 09:51:25;;;;;;;5.93;2.30;;;;;;;;;;5046871;28;20033;-65
2021/11/02 09:54:01;;;;;;;4.47;1.80;;;;;;;;;;5047139;28;20029;-66
2021/11/02 09:56:28;;;;;;;3.67;1.70;;;;;;;;;;5050606;28;20336;-66
2021/11/02 09:59:09;;;;;;;2.83;1.65;;;;;;;;;;5050264;28;20481;-66
2021/11/02 10:01:53;;;;;;;2.40;1.40;;;;;;;;;;5049565;28;20481;-67
2021/11/02 10:05:00;;;;;;;6.05;1.05;;;;;;;;;;5048623;28;20483;-66
2021/11/02 10:07:45;;;;;;;1.98;0.98;;;;;;;;;;5025591;28;20478;-67
2021/11/02 10:10:13;;;;;;;1.70;1.00;;;;;;;;;;5029552;28;20393;-67
2021/11/02 10:12:39;;;;;;;;;;;;;;;;;;5025649;28;20090;-64
2021/11/02 10:15:07;;;;;;;1.48;1.05;;;;;;;;;;5052004;28;19917;-67
2021/11/02 10:18:04;;;;;;;3.95;1.10;;;;;;;;;;5049577;28;20027;-67
2021/11/02 10:20:48;;;;;;;1.23;0.90;;;;;;;;;;5047920;28;20033;-66
2021/11/02 10:23:21;;;;;;;1.88;0.85;;;;;;;;;;5048270;28;20064;-66
2021/11/02 10:26:00;;;;;;;1.10;0.70;;;;;;;;;;5047312;28;20432;-66
2021/11/02 10:28:45;;;;;;;4.20;1.00;;;;;;;;;;5051928;28;20032;-64
2021/11/02 10:31:11;;;;;;;0.77;0.60;;;;;;;;;;5049879;28;20485;-65
2021/11/02 10:33:42;;;;;;;2.90;0.98;;;;;;;;;;5050652;28;20081;-65
2021/11/02 10:36:27;;;;;;;1.95;0.65;;;;;;;;;;5053226;28;20384;-64
2021/11/02 10:39:16;;;;;;;2.65;0.68;;;;;;;;;;5048392;28;20061;-65
2021/11/02 10:41:44;;;;;;;1.00;0.70;;;;;;;;;;5050484;28;20473;-65
2021/11/02 10:44:18;;;;;;;1.27;0.68;;;;;;;;;;5049607;28;20021;-65
2021/11/02 10:46:50;;;;;;;0.60;0.50;;;;;;;;;;5049109;28;20021;-64
2021/11/02 10:49:28;;;;;;;2.55;1.25;;;;;;;;;;5053298;28;20086;-65
2021/11/02 10:52:07;;;;;;;0.60;0.50;;;;;;;;;;5048338;28;20464;-67
2021/11/02 10:54:52;;;;;;;1.75;0.57;;;;;;;;;;5050131;28;20100;-66
2021/11/02 10:57:27;;;;;;;0.30;0.30;;;;;;;;;;5047192;28;20488;-66
2021/11/02 10:59:56;;;;;;;1.10;0.40;;;;;;;;;;5049621;28;20033;-65
2021/11/02 11:02:29;;;;;;;0.57;0.38;;;;;;;;;;5047721;28;20021;-65
2021/11/02 11:04:56;;;;;;;2.60;0.47;;;;;;;;;;5049545;28;20029;-65
2021/11/02 11:07:23;;;;;;;5.65;1.00;;;;;;;;;;5047590;28;20040;-65
2021/11/02 11:09:55;;;;;;;0.50;0.40;;;;;;;;;;5049880;28;20056;-65
2021/11/02 11:12:22;;;;;;;1.67;0.70;;;;;;;;;;5051420;28;20112;-66
2021/11/02 11:14:52;;;;;;;1.00;0.52;;;;;;;;;;5050727;28;20477;-65
2021/11/02 11:17:22;;;;;;;0.40;0.35;;;;;;;;;;5050847;28;20070;-66
2021/11/02 11:19:54;;;;;;;0.55;0.40;;;;;;;;;;5048104;28;20029;-64
2021/11/02 11:22:25;;;;;;;0.43;0.30;;;;;;;;;;5042642;28;20088;-64
2021/11/02 11:25:02;;;;;;;1.38;0.30;;;;;;;;;;5050751;28;20078;-64
2021/11/02 11:27:28;;;;;;;0.28;0.20;;;;;;;;;;5050506;28;20029;-64
2021/11/02 11:29:56;;;;;;;0.88;0.20;;;;;;;;;;5051401;28;20013;-64
2021/11/02 11:32:23;;;;;;;0.85;0.30;;;;;;;;;;5048727;28;20021;-64
2021/11/02 11:34:51;;;;;;;2.05;0.38;;;;;;;;;;5043018;28;20044;-64
2021/11/02 11:37:21;;;;;;;0.60;0.40;;;;;;;;;;5048989;28;20074;-64
2021/11/02 11:39:47;;;;;;;0.25;0.15;;;;;;;;;;5051805;28;20025;-64
2021/11/02 11:42:15;;;;;;;0.43;0.30;;;;;;;;;;5051627;28;20017;-64
2021/11/02 11:44:49;;;;;;;0.55;0.30;;;;;;;;;;5050151;28;20017;-64
2021/11/02 11:47:22;;;;;;;1.38;0.30;;;;;;;;;;5047102;28;20025;-64
2021/11/02 11:49:49;;;;;;;0.55;0.30;;;;;;;;;;5050267;28;20040;-65
2021/11/02 11:52:20;;;;;;;0.40;0.30;;;;;;;;;;5050668;28;20025;-65
2021/11/02 11:54:47;;;;;;;0.88;0.20;;;;;;;;;;5049240;28;20036;-65
2021/11/02 11:57:15;;;;;;;1.50;0.30;;;;;;;;;;5051070;28;20035;-64
2021/11/02 11:59:41;;;;;;;1.48;0.20;;;;;;;;;;5048069;28;20498;-65
2021/11/02 12:02:43;;;;;;;0.47;0.30;;;;;;;;;;5047900;28;20062;-65
2021/11/02 12:05:17;;;;;;;1.55;0.28;;;;;;;;;;5029231;28;20063;-64
2021/11/02 12:08:04;;;;;;;0.95;0.20;;;;;;;;;;5042043;28;20123;-64
2021/11/02 12:10:31;;;;;;;0.60;0.30;;;;;;;;;;5049113;28;20159;-64
2021/11/02 12:13:00;;;;;;;2.05;0.40;;;;;;;;;;5037794;28;20040;-64
2021/11/02 12:15:35;;;;;;;1.85;0.20;;;;;;;;;;5044486;28;20029;-64
2021/11/02 12:18:02;;;;;;;0.60;0.20;;;;;;;;;;5051283;28;20395;-64
2021/11/02 12:20:29;;;;;;;0.43;0.17;;;;;;;;;;5049766;28;20028;-64
2021/11/02 12:23:01;;;;;;;0.30;0.27;;;;;;;;;;5036841;28;20017;-64
2021/11/02 12:25:32;;;;;;;0.32;0.20;;;;;;;;;;5048950;28;20021;-64
2021/11/02 12:27:59;;;;;;;4.45;0.40;;;;;;;;;;5047616;28;20496;-64
2021/11/02 12:30:26;;;;;;;1.15;0.30;;;;;;;;;;5047485;28;20017;-64
2021/11/02 12:32:57;;;;;;;0.55;0.40;;;;;;;;;;5050247;28;20069;-63
2021/11/02 12:35:39;;;;;;;0.85;0.43;;;;;;;;;;5049173;28;20391;-64
2021/11/02 12:38:12;;;;;;;2.65;1.10;;;;;;;;;;5049810;28;20116;-64
2021/11/02 12:40:42;;;;;;;5.10;1.05;;;;;;;;;;5047706;28;20507;-64
2021/11/02 12:43:24;;;;;;;1.25;0.50;;;;;;;;;;5047771;28;20032;-64
2021/11/02 12:45:51;;;;;;;2.67;0.55;;;;;;;;;;5033390;28;20473;-64
2021/11/02 12:48:18;;;;;;;2.92;0.52;;;;;;;;;;5050428;28;20107;-64
2021/11/02 12:50:46;;;;;;;5.10;0.45;;;;;;;;;;5050169;28;20029;-64
2021/11/02 12:53:12;;;;;;;0.55;0.40;;;;;;;;;;5047540;28;20120;-64
2021/11/02 12:55:38;;;;;;;1.15;0.57;;;;;;;;;;5047725;28;20477;-64
2021/11/02 12:58:10;;;;;;;1.73;0.60;;;;;;;;;;5046658;28;20033;-64
2021/11/02 13:00:43;;;;;;;3.53;0.77;;;;;;;;;;5049202;28;20060;-64
2021/11/02 13:03:10;;;;;;;6.13;0.50;;;;;;;;;;5050766;28;20051;-64
2021/11/02 13:05:37;;;;;;;2.30;0.70;;;;;;;;;;5047892;28;20052;-64
2021/11/02 13:08:08;;;;;;;2.17;0.60;;;;;;;;;;5047189;28;20052;-64
2021/11/02 13:10:34;;;;;;;0.52;0.40;;;;;;;;;;5054722;28;20030;-64
2021/11/02 13:13:05;;;;;;;1.95;0.60;;;;;;;;;;5047234;28;20473;-64
2021/11/02 13:15:32;;;;;;;2.08;0.60;;;;;;;;;;5049376;28;20353;-64
2021/11/02 13:17:59;;;;;;;2.05;1.40;;;;;;;;;;5049034;28;20132;-64
2021/11/02 13:20:30;;;;;;;4.65;0.70;;;;;;;;;;5047880;28;20484;-64
2021/11/02 13:22:56;;;;;;;3.28;0.43;;;;;;;;;;5046822;28;20040;-64
2021/11/02 13:25:25;;;;;;;0.55;0.40;;;;;;;;;;5047348;28;20029;-64
2021/11/02 13:27:55;;;;;;;1.02;0.47;;;;;;;;;;5047261;28;20040;-64
2021/11/02 13:30:35;;;;;;;4.07;0.32;;;;;;;;;;5051634;28;20056;-64
2021/11/02 13:33:12;;;;;;;0.73;0.40;;;;;;;;;;5053225;28;20056;-64
2021/11/02 13:35:53;;;;;;;2.53;0.80;;;;;;;;;;5053280;28;20099;-64
2021/11/02 13:38:22;;;;;;;2.92;0.43;;;;;;;;;;5051158;28;20507;-64
2021/11/02 13:40:49;;;;;;;1.45;0.80;;;;;;;;;;5050911;28;20035;-64
2021/11/02 13:43:28;;;;;;;2.28;0.75;;;;;;;;;;5050207;28;20025;-64
2021/11/02 13:45:54;;;;;;;2.45;0.60;;;;;;;;;;5052098;28;20028;-64
2021/11/02 13:48:20;;;;;;;0.80;0.45;;;;;;;;;;5053193;28;20039;-64
2021/11/02 13:50:47;;;;;;;2.25;0.50;;;;;;;;;;5052491;28;20112;-64
2021/11/02 13:53:13;;;;;;;1.70;0.55;;;;;;;;;;5050592;28;20505;-64
2021/11/02 13:55:39;;;;;;;3.78;1.30;;;;;;;;;;5050707;28;20023;-64
2021/11/02 13:58:05;;;;;;;4.13;1.10;;;;;;;;;;5050060;28;20029;-64
2021/11/02 14:00:31;;;;;;;2.38;0.93;;;;;;;;;;5052347;28;20017;-64
2021/11/02 14:03:00;;;;;;;6.75;1.20;;;;;;;;;;5052510;28;20025;-64
2021/11/02 14:05:26;;;;;;;5.30;1.80;;;;;;;;;;5050289;28;20037;-64
2021/11/02 14:07:52;;;;;;;3.58;2.17;;;;;;;;;;5050619;28;20123;-64
2021/11/02 14:10:19;;;;;;;2.40;1.38;;;;;;;;;;5050714;28;20029;-64
2021/11/02 14:12:54;;;;;;;4.15;1.17;;;;;;;;;;5050579;28;20045;-65
2021/11/02 14:15:20;;;;;;;2.70;0.80;;;;;;;;;;5052368;28;20035;-64
2021/11/02 14:17:52;;;;;;;1.38;0.60;;;;;;;;;;5051351;28;20021;-64
2021/11/02 14:20:35;;;;;;;4.72;1.08;;;;;;;;;;5050327;28;20033;-65
2021/11/02 14:23:03;;;;;;;4.30;0.80;;;;;;;;;;5050204;28;20021;-65
2021/11/02 14:25:33;;;;;;;5.43;0.85;;;;;;;;;;5049432;28;20052;-64
2021/11/02 14:27:59;;;;;;;4.78;1.00;;;;;;;;;;5050258;28;20079;-64
2021/11/02 14:30:41;;;;;;;2.67;1.30;;;;;;;;;;5052584;28;20025;-64
2021/11/02 14:33:30;;;;;;;3.20;1.40;;;;;;;;;;5053110;28;20048;-64
2021/11/02 14:36:02;;;;;;;2.30;1.50;;;;;;;;;;5051007;28;20438;-64
2021/11/02 14:38:29;;;;;;;3.58;1.77;;;;;;;;;;5050255;28;20056;-64
2021/11/02 14:40:57;;;;;;;5.38;2.30;;;;;;;;;;5050120;28;20029;-64
2021/11/02 14:43:31;;;;;;;7.82;2.03;;;;;;;;;;5048846;28;20063;-65
2021/11/02 14:45:57;;;;;;;5.30;1.80;;;;;;;;;;5049518;28;20096;-64
2021/11/02 14:48:26;;;;;;;4.30;1.50;;;;;;;;;;5051901;28;20116;-64
2021/11/02 14:51:05;;;;;;;4.00;1.40;;;;;;;;;;5051249;28;20053;-65
2021/11/02 14:53:37;;;;;;;5.05;0.90;;;;;;;;;;5049624;28;20082;-65
2021/11/02 14:56:06;;;;;;;4.13;0.80;;;;;;;;;;5048638;28;20104;-64
2021/11/02 14:58:43;;;;;;;4.75;1.52;;;;;;;;;;5048469;28;20381;-64
2021/11/02 15:01:11;;;;;;;5.25;1.50;;;;;;;;;;5049448;28;20020;-64
2021/11/02 15:03:38;;;;;;;6.25;2.17;;;;;;;;;;5050885;28;20471;-64
2021/11/02 15:06:08;;;;;;;6.28;1.75;;;;;;;;;;5052691;28;20047;-65
2021/11/02 15:08:36;;;;;;;5.93;1.05;;;;;;;;;;5049485;28;20037;-64
2021/11/02 15:11:06;;;;;;;7.05;1.08;;;;;;;;;;5049332;28;20088;-64
2021/11/02 15:13:32;;;;;;;4.88;1.33;;;;;;;;;;5049314;28;20064;-64
2021/11/02 15:16:01;;;;;;;9.65;2.05;;;;;;;;;;5048294;28;20032;-65
2021/11/02 15:18:26;;;;;;;;;;;;;;;;;;5052092;28;20057;-64
2021/11/02 15:21:01;;;;;;;3.42;1.00;;;;;;;;;;5054545;28;19956;-64
2021/11/02 15:23:35;;;;;;;4.10;1.20;;;;;;;;;;5047876;28;20033;-65
2021/11/02 15:26:02;;;;;;;1.63;0.90;;;;;;;;;;5041905;28;21924;-65
2021/11/02 15:28:29;;;;;;;5.90;0.90;;;;;;;;;;5048089;28;20060;-65
2021/11/02 15:31:04;;;;;;;1.90;0.70;;;;;;;;;;5048546;28;20032;-65
2021/11/02 15:33:32;;;;;;;4.00;0.70;;;;;;;;;;5049517;28;20127;-65
2021/11/02 15:36:18;;;;;;;2.70;0.90;;;;;;;;;;5051818;28;20033;-65
2021/11/02 15:38:44;;;;;;;7.05;0.82;;;;;;;;;;5032145;28;20025;-65
2021/11/02 15:41:17;;;;;;;5.20;0.80;;;;;;;;;;5050528;28;20560;-65
2021/11/02 15:44:09;;;;;;;2.25;0.75;;;;;;;;;;5049880;28;20064;-65
2021/11/02 15:46:37;;;;;;;2.10;0.80;;;;;;;;;;5055374;28;20838;-65
2021/11/02 15:49:05;;;;;;;2.53;1.00;;;;;;;;;;5041207;28;20040;-65
2021/11/02 15:51:39;;;;;;;7.10;1.02;;;;;;;;;;5045087;28;20045;-65
2021/11/02 15:54:09;;;;;;;4.63;1.10;;;;;;;;;;5055590;28;20103;-65
2021/11/02 15:56:35;;;;;;;3.90;1.10;;;;;;;;;;5047771;28;20380;-65
2021/11/02 15:59:03;;;;;;;11.02;1.20;;;;;;;;;;5045378;28;20016;-65
2021/11/02 16:01:33;;;;;;;4.28;1.38;;;;;;;;;;5046273;28;20032;-66
2021/11/02 16:04:19;;;;;;;3.67;1.40;;;;;;;;;;5041135;28;20024;-65
2021/11/02 16:07:11;;;;;;;4.53;1.30;;;;;;;;;;5036359;28;20571;-66
2021/11/02 16:09:45;;;;;;;4.10;1.30;;;;;;;;;;5031798;28;20057;-65
2021/11/02 16:12:13;;;;;;;4.88;1.55;;;;;;;;;;5047508;28;20518;-65
2021/11/02 16:14:40;;;;;;;3.88;1.33;;;;;;;;;;5058689;28;20116;-67
2021/11/02 16:17:06;;;;;;;5.72;1.30;;;;;;;;;;5035592;28;20221;-67
2021/11/02 16:19:33;;;;;;;3.15;1.23;;;;;;;;;;5046683;28;20021;-67
2021/11/02 16:21:59;;;;;;;2.97;1.30;;;;;;;;;;5048002;28;20049;-67
2021/11/02 16:24:25;;;;;;;4.57;1.55;;;;;;;;;;5055552;28;20025;-67
2021/11/02 16:26:51;;;;;;;3.85;1.48;;;;;;;;;;5047895;28;20382;-67
2021/11/02 16:29:19;;;;;;;5.10;1.80;;;;;;;;;;5036401;28;20059;-67
2021/11/02 16:31:48;;;;;;;6.60;2.15;;;;;;;;;;5048403;28;20032;-67
2021/11/02 16:34:18;;;;;;;5.82;1.25;;;;;;;;;;5049244;28;20057;-70
2021/11/02 16:36:44;;;;;;;7.18;1.13;;;;;;;;;;5035914;28;20095;-67
2021/11/02 16:39:19;;;;;;;4.65;1.42;;;;;;;;;;5048786;28;20048;-67
2021/11/02 16:41:45;;;;;;;467.40;291.90;;;;;;;;;;5039354;28;20041;-69
2021/11/02 16:44:12;;;;;;;255.40;116.55;;;;;;;;;;5052597;28;20024;-69
2021/11/02 16:46:51;;;;;;;49.95;24.48;;;;;;;;;;5055377;28;20040;-68
2021/11/02 16:49:24;;;;;;;27.35;17.88;;;;;;;;;;5047192;28;20483;-68
2021/11/02 16:51:54;;;;;;;17.75;9.45;;;;;;;;;;5034903;28;20083;-68
2021/11/02 16:54:25;;;;;;;15.98;4.72;;;;;;;;;;5053557;28;20444;-68
2021/11/02 16:56:59;;;;;;;40.35;29.50;;;;;;;;;;5041960;28;20107;-68
2021/11/02 16:59:40;;;;;;;10.95;6.88;;;;;;;;;;5046580;28;20499;-67
2021/11/02 17:02:17;;;;;;;6.95;3.90;;;;;;;;;;5046614;28;20037;-68
2021/11/02 17:04:44;;;;;;;8.18;3.85;;;;;;;;;;5048797;28;20079;-68
2021/11/02 17:07:10;;;;;;;12.75;6.32;;;;;;;;;;5046499;28;20029;-68
2021/11/02 17:09:38;;;;;;;7.95;2.20;;;;;;;;;;5027116;28;20439;-69
2021/11/02 17:12:08;;;;;;;10.45;4.22;;;;;;;;;;5050536;28;20025;-68
2021/11/02 17:14:39;;;;;;;20.85;8.75;;;;;;;;;;5055017;28;20115;-63
2021/11/02 17:17:06;;;;;;;23.63;10.13;;;;;;;;;;5051597;28;20082;-63
2021/11/02 17:19:42;;;;;;;21.25;8.70;;;;;;;;;;5048482;28;20078;-62
2021/11/02 17:22:08;;;;;;;20.20;8.40;;;;;;;;;;5047564;28;20028;-62
2021/11/02 17:24:34;;;;;;;22.48;9.25;;;;;;;;;;5048132;28;20033;-63
2021/11/02 17:27:01;;;;;;;9.90;4.70;;;;;;;;;;5049600;28;20492;-64
2021/11/02 17:29:27;;;;;;;14.52;6.68;;;;;;;;;;5047262;28;20037;-65
2021/11/02 17:31:53;;;;;;;15.30;8.18;;;;;;;;;;5047466;28;20096;-65
2021/11/02 17:34:22;;;;;;;16.30;9.02;;;;;;;;;;5047326;28;20090;-64
2021/11/02 17:36:53;;;;;;;19.30;10.20;;;;;;;;;;5045841;28;20374;-64
2021/11/02 17:39:20;;;;;;;17.95;10.52;;;;;;;;;;5047508;28;20025;-64
2021/11/02 17:41:46;;;;;;;21.30;11.45;;;;;;;;;;5046387;28;20063;-64
2021/11/02 17:44:12;;;;;;;33.83;19.60;;;;;;;;;;5045613;28;20025;-66
2021/11/02 17:46:39;;;;;;;31.30;14.88;;;;;;;;;;5045881;28;20033;-65
2021/11/02 17:49:05;;;;;;;24.05;13.98;;;;;;;;;;5046171;28;20043;-68
2021/11/02 17:51:31;;;;;;;17.75;10.68;;;;;;;;;;5042733;28;20488;-64
2021/11/02 17:53:58;;;;;;;18.33;11.07;;;;;;;;;;5047273;28;20021;-64
2021/11/02 17:56:24;;;;;;;19.58;12.90;;;;;;;;;;5049189;28;20057;-63
2021/11/02 17:58:51;;;;;;;20.65;13.18;;;;;;;;;;5041092;28;20415;-64
2021/11/02 18:01:18;;;;;;;10.75;6.60;;;;;;;;;;5047257;28;20485;-63
2021/11/02 18:03:46;;;;;;;13.52;5.97;;;;;;;;;;5046758;28;20029;-64
2021/11/02 18:06:13;;;;;;;14.77;8.70;;;;;;;;;;5051573;28;20626;-65
2021/11/02 18:08:40;;;;;;;21.65;12.40;;;;;;;;;;5045493;28;20059;-63
2021/11/02 18:11:06;;;;;;;21.85;13.85;;;;;;;;;;5046621;28;20384;-64
2021/11/02 18:13:33;;;;;;;20.02;13.00;;;;;;;;;;5046971;28;20439;-64
2021/11/02 18:16:03;;;;;;;58.20;27.38;;;;;;;;;;5045499;28;20021;-63
2021/11/02 18:18:36;;;;;;;33.35;17.95;;;;;;;;;;5052244;28;20118;-63
2021/11/02 18:21:02;;;;;;;53.13;28.55;;;;;;;;;;5052831;28;20376;-67
2021/11/02 18:23:29;;;;;;;54.95;32.90;;;;;;;;;;5050475;28;20040;-64
2021/11/02 18:25:55;;;;;;;44.92;27.27;;;;;;;;;;5050181;28;20068;-64
2021/11/02 18:28:21;;;;;;;26.35;16.05;;;;;;;;;;5042663;28;20381;-68
2021/11/02 18:30:47;;;;;;;28.88;14.85;;;;;;;;;;5051184;28;20032;-68
2021/11/02 18:33:13;;;;;;;26.13;13.77;;;;;;;;;;5052959;28;20083;-68
2021/11/02 18:35:39;;;;;;;25.42;12.93;;;;;;;;;;5050623;28;20025;-68
2021/11/02 18:38:08;;;;;;;21.55;12.73;;;;;;;;;;5050591;28;20024;-65
2021/11/02 18:40:36;;;;;;;23.92;13.60;;;;;;;;;;5035831;28;20021;-68
2021/11/02 18:43:02;;;;;;;23.92;12.93;;;;;;;;;;5050448;28;20017;-70
2021/11/02 18:45:29;;;;;;;22.75;12.45;;;;;;;;;;5051887;28;20022;-69
2021/11/02 18:47:56;;;;;;;20.70;12.77;;;;;;;;;;5052425;28;20047;-69
2021/11/02 18:50:22;;;;;;;17.77;11.47;;;;;;;;;;5037072;28;20021;-70
2021/11/02 18:52:49;;;;;;;14.77;8.63;;;;;;;;;;5049882;28;20331;-69
2021/11/02 18:55:16;;;;;;;26.85;12.20;;;;;;;;;;5050989;28;20021;-70
2021/11/02 18:57:43;;;;;;;29.63;19.67;;;;;;;;;;5053350;28;20025;-69
2021/11/02 19:00:10;;;;;;;33.63;19.83;;;;;;;;;;5037717;28;20029;-70
2021/11/02 19:02:37;;;;;;;17.35;10.52;;;;;;;;;;5048881;28;20025;-69
2021/11/02 19:05:03;;;;;;;10.63;6.90;;;;;;;;;;5048956;28;20029;-70
2021/11/02 19:07:29;;;;;;;27.40;18.45;;;;;;;;;;5051312;28;20033;-70
2021/11/02 19:09:55;;;;;;;31.75;19.27;;;;;;;;;;5038716;28;20032;-69
2021/11/02 19:12:21;;;;;;;25.92;15.57;;;;;;;;;;5045735;28;20037;-68
2021/11/02 19:14:48;;;;;;;22.02;14.52;;;;;;;;;;5051377;28;20021;-67
2021/11/02 19:17:14;;;;;;;22.08;14.55;;;;;;;;;;5049618;28;20025;-67
2021/11/02 19:19:41;;;;;;;20.55;14.20;;;;;;;;;;5048151;28;20480;-67
2021/11/02 19:22:07;;;;;;;23.50;14.35;;;;;;;;;;5042198;28;20052;-67
2021/11/02 19:24:33;;;;;;;29.52;17.25;;;;;;;;;;5049411;28;20029;-67
2021/11/02 19:26:59;;;;;;;26.30;18.73;;;;;;;;;;5052769;28;20025;-68
2021/11/02 19:29:25;;;;;;;30.67;19.88;;;;;;;;;;5048157;28;20032;-68